Terminal Aerodrome Forecast
Issued by NWS

Home | Current Version | Previous Version | Text Only | Print | Product List | Glossary On
Versions: 1 2 3 4 5 6 7 8 9 10 11 12 13 14 15 16 17
000
FTUS44 KEWX 282338
TAFSSF
TAF
KSSF 282338Z 2900/2924 18008KT P6SM SKC
     FM291100 19004KT P6SM SCT010
      TEMPO 2912/2915 P6SM BKN007
     FM291600 18015KT P6SM FEW030
     FM291800 18015KT P6SM SKC=

USA.gov is the U.S. government's official web portal to all federal, state and local government web resources and services.